Time,TemperatureF,DewpointF,PressureIn,WindDirection,WindDirectionDegrees,WindSpeedMPH,WindSpeedGustMPH,Humidity,HourlyPrecipIn,Conditions,Clouds,dailyrainin,SolarRadiationWatts/m^2,SoftwareType,DateUTC
2013-12-03 00:00:00,20.7,19.9,-100.00,NNE,13,8.9,15.2,96,0.00,,,-99.99,1.0,HOBO +U30 +Weather +,2013-12-03 07:00:00,
2013-12-03 00:05:00,20.4,19.7,-100.00,NNE,14,13.4,18.1,96,0.00,,,-99.99,1.0,HOBO +U30 +Weather +,2013-12-03 07:05:00,
2013-12-03 00:10:00,20.3,19.5,-100.00,North,7,13.0,18.1,96,0.00,,,-99.99,1.0,HOBO +U30 +Weather +,2013-12-03 07:10:00,
2013-12-03 00:15:00,20.2,19.4,-100.00,NNE,13,11.9,16.3,96,0.00,,,-99.99,1.0,HOBO +U30 +Weather +,2013-12-03 07:15:00,
2013-12-03 00:20:00,20.1,19.3,-100.00,North,8,10.7,17.4,96,0.00,,,-99.99,1.0,HOBO +U30 +Weather +,2013-12-03 07:20:00,
2013-12-03 00:25:00,19.7,18.9,-100.00,North,10,11.9,18.6,96,0.00,,,-99.99,1.0,HOBO +U30 +Weather +,2013-12-03 07:25:00,
2013-12-03 00:30:00,19.3,18.5,-100.00,NNE,15,8.9,14.1,96,0.00,,,-99.99,1.0,HOBO +U30 +Weather +,2013-12-03 07:30:00,
2013-12-03 00:35:00,19.1,18.2,-100.00,North,10,11.9,19.2,96,0.00,,,-99.99,1.0,HOBO +U30 +Weather +,2013-12-03 07:35:00,
2013-12-03 00:40:00,19.0,18.1,-100.00,North,11,10.1,17.4,96,0.00,,,-99.99,1.0,HOBO +U30 +Weather +,2013-12-03 07:40:00,
2013-12-03 00:45:00,19.0,18.1,-100.00,North,10,7.4,11.2,96,0.00,,,-99.99,1.0,HOBO +U30 +Weather +,2013-12-03 07:45:00,
2013-12-03 00:50:00,18.7,17.7,-100.00,North,0,8.5,15.9,96,0.00,,,-99.99,1.0,HOBO +U30 +Weather +,2013-12-03 07:50:00,
2013-12-03 00:55:00,18.6,17.6,-100.00,North,7,11.9,16.3,96,0.00,,,-99.99,1.0,HOBO +U30 +Weather +,2013-12-03 07:55:00,
2013-12-03 01:00:00,18.2,17.3,-100.00,North,3,13.0,20.4,96,0.00,,,-99.99,1.0,HOBO +U30 +Weather +,2013-12-03 08:00:00,
2013-12-03 01:05:00,18.2,17.3,-100.00,North,350,9.6,17.0,96,0.00,,,-99.99,1.0,HOBO +U30 +Weather +,2013-12-03 08:05:00,
2013-12-03 01:10:00,18.1,17.1,-100.00,NW,321,6.7,14.5,96,0.00,,,-99.99,1.0,HOBO +U30 +Weather +,2013-12-03 08:10:00,
2013-12-03 01:15:00,18.0,17.0,-100.00,NNW,327,8.9,16.3,96,0.00,,,-99.99,1.0,HOBO +U30 +Weather +,2013-12-03 08:15:00,
2013-12-03 01:20:00,17.9,16.9,-100.00,NNW,330,7.4,11.9,95,0.00,,,-99.99,1.0,HOBO +U30 +Weather +,2013-12-03 08:20:00,
2013-12-03 01:25:00,18.0,17.0,-100.00,NW,317,5.1,11.2,96,0.00,,,-99.99,1.0,HOBO +U30 +Weather +,2013-12-03 08:25:00,
2013-12-03 01:30:00,17.7,16.6,-100.00,NNW,343,8.9,15.9,95,0.00,,,-99.99,1.0,HOBO +U30 +Weather +,2013-12-03 08:30:00,
2013-12-03 01:35:00,17.5,16.5,-100.00,NNW,345,7.8,13.0,95,0.00,,,-99.99,1.0,HOBO +U30 +Weather +,2013-12-03 08:35:00,
2013-12-03 01:45:00,17.5,16.4,-100.00,NNW,327,6.7,10.7,95,0.00,,,-99.99,1.0,HOBO +U30 +Weather +,2013-12-03 08:45:00,
2013-12-03 01:50:00,17.1,16.1,-100.00,North,354,9.6,13.4,95,0.00,,,-99.99,1.0,HOBO +U30 +Weather +,2013-12-03 08:50:00,
2013-12-03 01:55:00,17.1,16.0,-100.00,NNW,340,7.8,15.9,95,0.00,,,-99.99,1.0,HOBO +U30 +Weather +,2013-12-03 08:55:00,
2013-12-03 02:00:00,16.9,15.8,-100.00,NNW,347,10.7,16.3,95,0.00,,,-99.99,1.0,HOBO +U30 +Weather +,2013-12-03 09:00:00,
2013-12-03 02:05:00,16.8,15.7,-100.00,NNW,345,8.5,13.4,95,0.00,,,-99.99,1.0,HOBO +U30 +Weather +,2013-12-03 09:05:00,
2013-12-03 02:10:00,16.7,15.6,-100.00,North,354,7.8,11.9,95,0.00,,,-99.99,1.0,HOBO +U30 +Weather +,2013-12-03 09:10:00,
2013-12-03 02:15:00,16.8,15.7,-100.00,North,355,5.6,10.7,95,0.00,,,-99.99,1.0,HOBO +U30 +Weather +,2013-12-03 09:15:00,
2013-12-03 02:20:00,16.7,15.6,-100.00,North,354,5.6,11.2,95,0.00,,,-99.99,1.0,HOBO +U30 +Weather +,2013-12-03 09:20:00,
2013-12-03 02:25:00,16.7,15.6,-100.00,North,355,5.6,8.9,95,0.00,,,-99.99,1.0,HOBO +U30 +Weather +,2013-12-03 09:25:00,
2013-12-03 02:30:00,16.6,15.5,-100.00,North,354,7.4,13.0,95,0.00,,,-99.99,1.0,HOBO +U30 +Weather +,2013-12-03 09:30:00,
2013-12-03 02:35:00,16.6,15.5,-100.00,North,355,6.7,10.1,95,0.00,,,-99.99,1.0,HOBO +U30 +Weather +,2013-12-03 09:35:00,
2013-12-03 02:40:00,16.5,15.4,-100.00,North,352,7.4,13.0,95,0.00,,,-99.99,1.0,HOBO +U30 +Weather +,2013-12-03 09:40:00,
2013-12-03 02:45:00,16.8,15.7,-100.00,North,8,5.1,10.7,95,0.00,,,-99.99,1.0,HOBO +U30 +Weather +,2013-12-03 09:45:00,
2013-12-03 02:50:00,16.4,15.3,-100.00,North,355,5.6,12.3,95,0.00,,,-99.99,1.0,HOBO +U30 +Weather +,2013-12-03 09:50:00,
2013-12-03 02:55:00,16.3,15.2,-100.00,NNW,344,6.3,10.7,95,0.00,,,-99.99,1.0,HOBO +U30 +Weather +,2013-12-03 09:55:00,
2013-12-03 03:00:00,16.2,15.0,-100.00,North,351,6.7,11.2,95,0.00,,,-99.99,1.0,HOBO +U30 +Weather +,2013-12-03 10:00:00,
2013-12-03 03:05:00,16.2,15.1,-100.00,NNW,333,4.5,10.7,95,0.00,,,-99.99,1.0,HOBO +U30 +Weather +,2013-12-03 10:05:00,
2013-12-03 03:10:00,16.3,15.2,-100.00,NNW,345,2.2,5.6,95,0.00,,,-99.99,1.0,HOBO +U30 +Weather +,2013-12-03 10:10:00,
2013-12-03 03:15:00,16.3,15.2,-100.00,NW,309,1.1,6.3,95,0.00,,,-99.99,1.0,HOBO +U30 +Weather +,2013-12-03 10:15:00,
2013-12-03 03:20:00,16.2,15.1,-100.00,NNW,340,3.4,6.3,95,0.00,,,-99.99,1.0,HOBO +U30 +Weather +,2013-12-03 10:20:00,
2013-12-03 03:25:00,16.3,15.2,-100.00,NNW,338,2.2,5.1,95,0.00,,,-99.99,1.0,HOBO +U30 +Weather +,2013-12-03 10:25:00,
2013-12-03 03:30:00,16.2,15.0,-100.00,NNW,330,2.9,6.7,95,0.00,,,-99.99,1.0,HOBO +U30 +Weather +,2013-12-03 10:30:00,
2013-12-03 03:43:00,16.1,14.9,-100.00,NNW,334,2.9,9.6,95,0.00,,,-99.99,1.0,HOBO +U30 +Weather +,2013-12-03 10:43:00,
2013-12-03 03:45:00,16.1,14.9,-100.00,NNW,345,6.7,12.3,95,0.00,,,-99.99,1.0,HOBO +U30 +Weather +,2013-12-03 10:45:00,
2013-12-03 03:50:00,16.0,14.8,-100.00,NNW,348,8.5,13.0,95,0.00,,,-99.99,1.0,HOBO +U30 +Weather +,2013-12-03 10:50:00,
2013-12-03 03:55:00,16.0,14.8,-100.00,NNW,329,5.1,11.2,95,0.00,,,-99.99,1.0,HOBO +U30 +Weather +,2013-12-03 10:55:00,
2013-12-03 04:00:00,15.9,14.7,-100.00,WNW,282,5.1,10.1,95,0.00,,,-99.99,1.0,HOBO +U30 +Weather +,2013-12-03 11:00:00,
2013-12-03 04:05:00,15.7,14.5,-100.00,West,279,4.0,11.9,95,0.00,,,-99.99,1.0,HOBO +U30 +Weather +,2013-12-03 11:05:00,
2013-12-03 04:10:00,15.3,14.1,-100.00,WNW,282,6.3,10.7,94,0.00,,,-99.99,1.0,HOBO +U30 +Weather +,2013-12-03 11:10:00,
2013-12-03 04:15:00,15.1,13.8,-100.00,West,278,7.4,14.1,94,0.00,,,-99.99,1.0,HOBO +U30 +Weather +,2013-12-03 11:15:00,
2013-12-03 04:20:00,15.0,13.8,-100.00,West,277,5.6,11.2,94,0.00,,,-99.99,1.0,HOBO +U30 +Weather +,2013-12-03 11:20:00,
2013-12-03 04:25:00,15.4,14.3,-100.00,West,268,1.8,7.4,95,0.00,,,-99.99,1.0,HOBO +U30 +Weather +,2013-12-03 11:25:00,
2013-12-03 04:30:00,15.1,13.9,-100.00,WNW,288,2.9,6.7,94,0.00,,,-99.99,1.0,HOBO +U30 +Weather +,2013-12-03 11:30:00,
2013-12-03 04:35:00,15.2,14.0,-100.00,West,261,1.8,5.1,94,0.00,,,-99.99,1.0,HOBO +U30 +Weather +,2013-12-03 11:35:00,
2013-12-03 04:40:00,15.1,13.9,-100.00,West,271,2.2,6.3,94,0.00,,,-99.99,1.0,HOBO +U30 +Weather +,2013-12-03 11:40:00,
2013-12-03 04:45:00,15.0,13.7,-100.00,West,270,2.2,7.4,94,0.00,,,-99.99,1.0,HOBO +U30 +Weather +,2013-12-03 11:45:00,
2013-12-03 04:50:00,14.9,13.6,-100.00,West,274,2.9,6.7,94,0.00,,,-99.99,1.0,HOBO +U30 +Weather +,2013-12-03 11:50:00,
2013-12-03 04:55:00,14.9,13.6,-100.00,West,271,2.2,5.6,94,0.00,,,-99.99,1.0,HOBO +U30 +Weather +,2013-12-03 11:55:00,
2013-12-03 05:00:00,14.8,13.6,-100.00,WNW,284,3.4,8.5,94,0.00,,,-99.99,1.0,HOBO +U30 +Weather +,2013-12-03 12:00:00,
2013-12-03 05:05:00,14.6,13.4,-100.00,West,279,5.6,8.9,94,0.00,,,-99.99,1.0,HOBO +U30 +Weather +,2013-12-03 12:05:00,
2013-12-03 05:10:00,14.6,13.4,-100.00,West,277,3.4,7.8,94,0.00,,,-99.99,1.0,HOBO +U30 +Weather +,2013-12-03 12:10:00,
2013-12-03 05:15:00,14.7,13.4,-100.00,West,277,3.4,7.4,94,0.00,,,-99.99,1.0,HOBO +U30 +Weather +,2013-12-03 12:15:00,
2013-12-03 05:20:00,14.9,13.7,-100.00,WNW,285,1.8,4.5,94,0.00,,,-99.99,1.0,HOBO +U30 +Weather +,2013-12-03 12:20:00,
2013-12-03 05:25:00,14.7,13.4,-100.00,West,268,2.2,5.6,94,0.00,,,-99.99,1.0,HOBO +U30 +Weather +,2013-12-03 12:25:00,
2013-12-03 05:30:00,15.1,13.8,-100.00,WNW,286,0.7,3.4,94,0.00,,,-99.99,1.0,HOBO +U30 +Weather +,2013-12-03 12:30:00,
2013-12-03 05:40:00,15.4,14.2,-100.00,West,277,1.1,3.4,95,0.00,,,-99.99,1.0,HOBO +U30 +Weather +,2013-12-03 12:40:00,
2013-12-03 05:41:00,15.1,13.8,-100.00,West,274,1.1,5.6,94,0.00,,,-99.99,1.0,HOBO +U30 +Weather +,2013-12-03 12:41:00,
2013-12-03 05:45:00,15.7,14.5,-100.00,West,261,0.0,2.2,95,0.00,,,-99.99,1.0,HOBO +U30 +Weather +,2013-12-03 12:45:00,
2013-12-03 05:50:00,15.1,13.9,-100.00,West,271,2.2,6.7,94,0.00,,,-99.99,1.0,HOBO +U30 +Weather +,2013-12-03 12:50:00,
2013-12-03 05:55:00,15.2,14.0,-100.00,West,281,1.8,5.1,94,0.00,,,-99.99,1.0,HOBO +U30 +Weather +,2013-12-03 12:55:00,
2013-12-03 06:00:00,15.1,13.9,-100.00,WNW,292,1.8,4.0,94,0.00,,,-99.99,1.0,HOBO +U30 +Weather +,2013-12-03 13:00:00,
2013-12-03 06:05:00,15.3,14.0,-100.00,WNW,286,0.7,4.0,94,0.00,,,-99.99,1.0,HOBO +U30 +Weather +,2013-12-03 13:05:00,
2013-12-03 06:10:00,15.3,14.1,-100.00,West,274,1.1,4.5,95,0.00,,,-99.99,1.0,HOBO +U30 +Weather +,2013-12-03 13:10:00,
2013-12-03 06:15:00,15.4,14.1,-100.00,West,277,1.1,2.9,94,0.00,,,-99.99,1.0,HOBO +U30 +Weather +,2013-12-03 13:15:00,
2013-12-03 06:20:00,15.4,14.2,-100.00,West,277,0.7,3.4,95,0.00,,,-99.99,1.0,HOBO +U30 +Weather +,2013-12-03 13:20:00,
2013-12-03 06:25:00,15.2,14.0,-100.00,WNW,295,1.8,5.6,94,0.00,,,-99.99,1.0,HOBO +U30 +Weather +,2013-12-03 13:25:00,
2013-12-03 06:39:00,15.3,14.1,-100.00,NW,312,0.0,3.4,95,0.00,,,-99.99,1.0,HOBO +U30 +Weather +,2013-12-03 13:39:00,
2013-12-03 06:40:00,14.8,13.5,-100.00,NW,323,2.2,4.5,94,0.00,,,-99.99,1.0,HOBO +U30 +Weather +,2013-12-03 13:40:00,
2013-12-03 06:45:00,14.7,13.4,-100.00,NW,316,1.8,4.5,94,0.00,,,-99.99,1.0,HOBO +U30 +Weather +,2013-12-03 13:45:00,
2013-12-03 06:50:00,14.8,13.6,-100.00,WNW,292,0.7,3.4,94,0.00,,,-99.99,1.0,HOBO +U30 +Weather +,2013-12-03 13:50:00,
2013-12-03 06:55:00,14.9,13.7,-100.00,NW,312,2.2,11.2,94,0.00,,,-99.99,1.0,HOBO +U30 +Weather +,2013-12-03 13:55:00,
2013-12-03 07:00:00,14.7,13.4,-100.00,WNW,303,5.6,11.2,94,0.00,,,-99.99,1.0,HOBO +U30 +Weather +,2013-12-03 14:00:00,
2013-12-03 07:05:00,14.6,13.3,-100.00,NW,323,5.6,10.7,94,0.00,,,-99.99,1.0,HOBO +U30 +Weather +,2013-12-03 14:05:00,
2013-12-03 07:10:00,14.5,13.2,-100.00,NW,326,6.7,12.3,94,0.00,,,-99.99,1.0,HOBO +U30 +Weather +,2013-12-03 14:10:00,
2013-12-03 07:15:00,14.5,13.2,-100.00,NW,321,5.1,10.7,94,0.00,,,-99.99,1.0,HOBO +U30 +Weather +,2013-12-03 14:15:00,
2013-12-03 07:20:00,14.4,13.1,-100.00,NNW,329,6.7,10.1,94,0.00,,,-99.99,1.0,HOBO +U30 +Weather +,2013-12-03 14:20:00,
2013-12-03 07:25:00,14.4,13.1,-100.00,NNW,331,6.3,11.2,94,0.00,,,-99.99,1.0,HOBO +U30 +Weather +,2013-12-03 14:25:00,
2013-12-03 07:38:00,14.4,13.1,-100.00,NNW,341,5.6,10.1,94,0.00,,,-99.99,1.0,HOBO +U30 +Weather +,2013-12-03 14:38:00,
2013-12-03 07:40:00,14.4,13.1,-100.00,NNW,336,6.7,13.4,94,0.00,,,-99.99,4.0,HOBO +U30 +Weather +,2013-12-03 14:40:00,
2013-12-03 07:45:00,14.4,13.1,-100.00,NW,314,5.6,9.6,94,0.00,,,-99.99,6.0,HOBO +U30 +Weather +,2013-12-03 14:45:00,
2013-12-03 07:50:00,14.8,13.6,-100.00,West,274,1.8,5.6,94,0.00,,,-99.99,6.0,HOBO +U30 +Weather +,2013-12-03 14:50:00,
2013-12-03 07:55:00,14.3,13.0,-100.00,West,271,3.4,7.4,94,0.00,,,-99.99,6.0,HOBO +U30 +Weather +,2013-12-03 14:55:00,
2013-12-03 08:00:00,14.1,12.7,-100.00,West,277,4.0,10.7,94,0.00,,,-99.99,7.0,HOBO +U30 +Weather +,2013-12-03 15:00:00,
2013-12-03 08:05:00,13.7,12.3,-100.00,WNW,293,5.1,8.5,94,0.00,,,-99.99,9.0,HOBO +U30 +Weather +,2013-12-03 15:05:00,
2013-12-03 08:10:00,13.4,12.0,-100.00,WNW,296,5.1,9.6,94,0.00,,,-99.99,13.0,HOBO +U30 +Weather +,2013-12-03 15:10:00,
2013-12-03 08:15:00,13.3,11.9,-100.00,WNW,288,5.1,8.5,94,0.00,,,-99.99,19.0,HOBO +U30 +Weather +,2013-12-03 15:15:00,
2013-12-03 08:20:00,13.3,11.8,-100.00,WNW,286,4.0,10.7,94,0.00,,,-99.99,24.0,HOBO +U30 +Weather +,2013-12-03 15:20:00,
2013-12-03 08:25:00,13.1,11.7,-100.00,WNW,282,5.1,10.1,94,0.00,,,-99.99,29.0,HOBO +U30 +Weather +,2013-12-03 15:25:00,
2013-12-03 08:37:00,13.0,11.6,-100.00,WNW,289,5.1,8.9,93,0.00,,,-99.99,33.0,HOBO +U30 +Weather +,2013-12-03 15:37:00,
2013-12-03 08:40:00,13.2,11.8,-100.00,WNW,289,4.5,11.2,94,0.00,,,-99.99,39.0,HOBO +U30 +Weather +,2013-12-03 15:40:00,
2013-12-03 08:45:00,13.1,11.6,-100.00,WNW,289,5.6,13.0,93,0.00,,,-99.99,43.0,HOBO +U30 +Weather +,2013-12-03 15:45:00,
2013-12-03 08:50:00,13.1,11.7,-100.00,WNW,288,5.1,9.6,93,0.00,,,-99.99,51.0,HOBO +U30 +Weather +,2013-12-03 15:50:00,
2013-12-03 08:55:00,13.3,11.8,-100.00,WNW,285,5.6,11.9,93,0.00,,,-99.99,56.0,HOBO +U30 +Weather +,2013-12-03 15:55:00,
2013-12-03 09:00:00,13.4,11.9,-100.00,West,275,4.5,10.7,93,0.00,,,-99.99,59.0,HOBO +U30 +Weather +,2013-12-03 16:00:00,
2013-12-03 09:05:00,13.5,11.9,-100.00,West,275,2.9,10.1,93,0.00,,,-99.99,61.0,HOBO +U30 +Weather +,2013-12-03 16:05:00,
2013-12-03 09:10:00,13.4,11.8,-100.00,WSW,251,4.0,9.6,93,0.00,,,-99.99,63.0,HOBO +U30 +Weather +,2013-12-03 16:10:00,
2013-12-03 09:15:00,13.6,12.1,-100.00,West,264,3.4,7.4,93,0.00,,,-99.99,66.0,HOBO +U30 +Weather +,2013-12-03 16:15:00,
2013-12-03 09:20:00,13.4,11.8,-100.00,West,281,5.1,10.1,93,0.00,,,-99.99,68.0,HOBO +U30 +Weather +,2013-12-03 16:20:00,
2013-12-03 09:25:00,13.5,12.0,-100.00,West,261,2.9,8.9,93,0.00,,,-99.99,73.0,HOBO +U30 +Weather +,2013-12-03 16:25:00,
2013-12-03 09:35:00,13.3,11.7,-100.00,WSW,256,4.5,9.6,93,0.00,,,-99.99,78.0,HOBO +U30 +Weather +,2013-12-03 16:35:00,
2013-12-03 09:40:00,13.6,12.1,-100.00,WSW,251,3.4,6.3,93,0.00,,,-99.99,81.0,HOBO +U30 +Weather +,2013-12-03 16:40:00,
2013-12-03 09:45:00,13.1,11.5,-100.00,WNW,282,5.6,11.2,93,0.00,,,-99.99,79.0,HOBO +U30 +Weather +,2013-12-03 16:45:00,
2013-12-03 09:50:00,12.9,11.2,-100.00,West,279,6.3,12.3,92,0.00,,,-99.99,77.0,HOBO +U30 +Weather +,2013-12-03 16:50:00,
2013-12-03 09:55:00,12.9,11.2,-100.00,WNW,289,4.5,9.6,93,0.00,,,-99.99,74.0,HOBO +U30 +Weather +,2013-12-03 16:55:00,
2013-12-03 10:00:00,12.8,11.2,-100.00,WNW,293,6.3,11.2,93,0.00,,,-99.99,78.0,HOBO +U30 +Weather +,2013-12-03 17:00:00,
2013-12-03 10:05:00,13.2,11.7,-100.00,WNW,298,4.0,10.7,93,0.00,,,-99.99,87.0,HOBO +U30 +Weather +,2013-12-03 17:05:00,
2013-12-03 10:10:00,13.2,11.6,-100.00,WNW,292,3.4,8.9,93,0.00,,,-99.99,93.0,HOBO +U30 +Weather +,2013-12-03 17:10:00,
2013-12-03 10:15:00,13.3,11.7,-100.00,West,278,4.0,11.2,93,0.00,,,-99.99,102.0,HOBO +U30 +Weather +,2013-12-03 17:15:00,
2013-12-03 10:20:00,13.4,11.8,-100.00,WNW,289,4.0,9.6,93,0.00,,,-99.99,109.0,HOBO +U30 +Weather +,2013-12-03 17:20:00,
2013-12-03 10:25:00,13.6,12.0,-100.00,West,281,4.0,8.5,93,0.00,,,-99.99,112.0,HOBO +U30 +Weather +,2013-12-03 17:25:00,
2013-12-03 10:35:00,13.7,12.1,-100.00,WNW,284,3.4,7.8,93,0.00,,,-99.99,111.0,HOBO +U30 +Weather +,2013-12-03 17:35:00,
2013-12-03 10:40:00,14.2,12.6,-100.00,WNW,286,2.2,7.4,93,0.00,,,-99.99,117.0,HOBO +U30 +Weather +,2013-12-03 17:40:00,
2013-12-03 10:45:00,14.0,12.4,-100.00,WNW,291,2.2,7.4,93,0.00,,,-99.99,117.0,HOBO +U30 +Weather +,2013-12-03 17:45:00,
2013-12-03 10:50:00,14.0,12.4,-100.00,WNW,288,2.9,9.6,93,0.00,,,-99.99,114.0,HOBO +U30 +Weather +,2013-12-03 17:50:00,
2013-12-03 10:55:00,14.0,12.5,-100.00,WNW,286,4.0,8.9,93,0.00,,,-99.99,123.0,HOBO +U30 +Weather +,2013-12-03 17:55:00,
2013-12-03 11:00:00,13.7,12.1,-100.00,WNW,282,4.5,9.6,93,0.00,,,-99.99,126.0,HOBO +U30 +Weather +,2013-12-03 18:00:00,
2013-12-03 11:05:00,14.0,12.4,-100.00,WNW,291,4.5,7.8,93,0.00,,,-99.99,132.0,HOBO +U30 +Weather +,2013-12-03 18:05:00,
2013-12-03 11:10:00,14.3,12.9,-100.00,WNW,295,3.4,8.9,93,0.00,,,-99.99,138.0,HOBO +U30 +Weather +,2013-12-03 18:10:00,
2013-12-03 11:15:00,14.7,13.2,-100.00,WNW,296,1.1,6.3,93,0.00,,,-99.99,139.0,HOBO +U30 +Weather +,2013-12-03 18:15:00,
2013-12-03 11:20:00,14.4,12.9,-100.00,NW,309,1.1,4.5,93,0.00,,,-99.99,146.0,HOBO +U30 +Weather +,2013-12-03 18:20:00,
2013-12-03 11:33:00,14.3,12.8,-100.00,NNW,331,2.2,6.3,93,0.00,,,-99.99,157.0,HOBO +U30 +Weather +,2013-12-03 18:33:00,
2013-12-03 11:35:00,14.4,12.9,-100.00,NNW,327,2.9,7.4,93,0.00,,,-99.99,157.0,HOBO +U30 +Weather +,2013-12-03 18:35:00,
2013-12-03 11:40:00,13.7,12.1,-100.00,NNW,336,5.1,11.2,93,0.00,,,-99.99,152.0,HOBO +U30 +Weather +,2013-12-03 18:40:00,
2013-12-03 11:45:00,13.8,12.1,-100.00,NNW,334,6.3,11.2,93,0.00,,,-99.99,138.0,HOBO +U30 +Weather +,2013-12-03 18:45:00,
2013-12-03 11:50:00,13.5,11.7,-100.00,NNW,336,8.5,12.3,92,0.00,,,-99.99,127.0,HOBO +U30 +Weather +,2013-12-03 18:50:00,
2013-12-03 11:55:00,13.8,12.1,-100.00,NW,326,5.1,10.7,93,0.00,,,-99.99,118.0,HOBO +U30 +Weather +,2013-12-03 18:55:00,
2013-12-03 12:00:00,13.7,12.1,-100.00,NW,310,5.6,11.2,93,0.00,,,-99.99,112.0,HOBO +U30 +Weather +,2013-12-03 19:00:00,
2013-12-03 12:05:00,13.8,12.3,-100.00,NW,305,3.4,6.7,93,0.00,,,-99.99,112.0,HOBO +U30 +Weather +,2013-12-03 19:05:00,
2013-12-03 12:10:00,13.3,11.6,-100.00,WNW,282,4.0,10.1,93,0.00,,,-99.99,117.0,HOBO +U30 +Weather +,2013-12-03 19:10:00,
2013-12-03 12:15:00,13.8,12.3,-100.00,WNW,293,2.9,9.6,93,0.00,,,-99.99,114.0,HOBO +U30 +Weather +,2013-12-03 19:15:00,
2013-12-03 12:20:00,13.4,11.8,-100.00,West,272,2.2,6.3,93,0.00,,,-99.99,111.0,HOBO +U30 +Weather +,2013-12-03 19:20:00,
2013-12-03 12:30:00,13.3,11.7,-100.00,WNW,295,2.9,8.5,93,0.00,,,-99.99,104.0,HOBO +U30 +Weather +,2013-12-03 19:30:00,
2013-12-03 12:31:00,13.5,11.9,-100.00,West,277,2.9,7.4,93,0.00,,,-99.99,109.0,HOBO +U30 +Weather +,2013-12-03 19:31:00,
2013-12-03 12:35:00,13.0,11.4,-100.00,West,281,4.5,8.9,93,0.00,,,-99.99,103.0,HOBO +U30 +Weather +,2013-12-03 19:35:00,
2013-12-03 12:40:00,12.7,11.1,-100.00,WNW,292,4.5,8.9,93,0.00,,,-99.99,99.0,HOBO +U30 +Weather +,2013-12-03 19:40:00,
2013-12-03 12:45:00,12.7,11.1,-100.00,WNW,293,4.0,8.5,93,0.00,,,-99.99,97.0,HOBO +U30 +Weather +,2013-12-03 19:45:00,
2013-12-03 12:50:00,12.5,10.9,-100.00,WNW,288,3.4,5.6,93,0.00,,,-99.99,99.0,HOBO +U30 +Weather +,2013-12-03 19:50:00,
2013-12-03 12:55:00,13.1,11.6,-100.00,West,274,1.8,6.7,93,0.00,,,-99.99,101.0,HOBO +U30 +Weather +,2013-12-03 19:55:00,
2013-12-03 13:00:00,13.0,11.4,-100.00,West,277,3.4,7.8,93,0.00,,,-99.99,102.0,HOBO +U30 +Weather +,2013-12-03 20:00:00,
2013-12-03 13:05:00,13.0,11.4,-100.00,WNW,285,3.4,8.5,93,0.00,,,-99.99,107.0,HOBO +U30 +Weather +,2013-12-03 20:05:00,
2013-12-03 13:10:00,12.8,11.2,-100.00,WNW,286,4.5,8.9,93,0.00,,,-99.99,109.0,HOBO +U30 +Weather +,2013-12-03 20:10:00,
2013-12-03 13:15:00,12.9,11.3,-100.00,WNW,288,4.0,7.8,93,0.00,,,-99.99,112.0,HOBO +U30 +Weather +,2013-12-03 20:15:00,
2013-12-03 13:20:00,13.3,11.8,-100.00,WNW,293,2.2,6.3,93,0.00,,,-99.99,113.0,HOBO +U30 +Weather +,2013-12-03 20:20:00,
2013-12-03 13:30:00,13.9,12.4,-100.00,WNW,299,1.1,5.6,93,0.00,,,-99.99,114.0,HOBO +U30 +Weather +,2013-12-03 20:30:00,
2013-12-03 13:35:00,13.0,11.4,-100.00,West,277,4.5,8.5,93,0.00,,,-99.99,116.0,HOBO +U30 +Weather +,2013-12-03 20:35:00,
2013-12-03 13:40:00,13.5,12.0,-100.00,West,272,2.9,7.8,93,0.00,,,-99.99,122.0,HOBO +U30 +Weather +,2013-12-03 20:40:00,
2013-12-03 13:45:00,13.4,11.8,-100.00,West,271,2.9,6.3,93,0.00,,,-99.99,129.0,HOBO +U30 +Weather +,2013-12-03 20:45:00,
2013-12-03 13:50:00,13.5,11.9,-100.00,West,278,2.9,6.7,93,0.00,,,-99.99,137.0,HOBO +U30 +Weather +,2013-12-03 20:50:00,
2013-12-03 13:55:00,14.8,13.3,-100.00,WNW,289,0.7,5.1,93,0.00,,,-99.99,134.0,HOBO +U30 +Weather +,2013-12-03 20:55:00,
2013-12-03 14:00:00,14.3,12.8,-100.00,West,275,2.2,7.4,93,0.00,,,-99.99,126.0,HOBO +U30 +Weather +,2013-12-03 21:00:00,
2013-12-03 14:05:00,14.4,13.0,-100.00,WNW,288,1.1,5.6,93,0.00,,,-99.99,121.0,HOBO +U30 +Weather +,2013-12-03 21:05:00,
2013-12-03 14:10:00,14.3,12.8,-100.00,WNW,282,2.9,7.8,93,0.00,,,-99.99,122.0,HOBO +U30 +Weather +,2013-12-03 21:10:00,
2013-12-03 14:15:00,14.0,12.4,-100.00,West,277,2.2,6.7,93,0.00,,,-99.99,129.0,HOBO +U30 +Weather +,2013-12-03 21:15:00,
2013-12-03 14:29:00,13.8,12.3,-100.00,WNW,286,4.0,9.6,93,0.00,,,-99.99,127.0,HOBO +U30 +Weather +,2013-12-03 21:29:00,
2013-12-03 14:30:00,14.3,12.8,-100.00,West,275,2.9,7.8,93,0.00,,,-99.99,123.0,HOBO +U30 +Weather +,2013-12-03 21:30:00,
2013-12-03 14:35:00,14.0,12.4,-100.00,West,281,2.2,6.7,93,0.00,,,-99.99,121.0,HOBO +U30 +Weather +,2013-12-03 21:35:00,
2013-12-03 14:40:00,13.4,11.8,-100.00,WNW,289,5.6,11.9,93,0.00,,,-99.99,117.0,HOBO +U30 +Weather +,2013-12-03 21:40:00,
2013-12-03 14:45:00,13.5,11.9,-100.00,WNW,288,5.1,11.9,93,0.00,,,-99.99,107.0,HOBO +U30 +Weather +,2013-12-03 21:45:00,
2013-12-03 14:50:00,13.9,12.4,-100.00,WNW,284,4.0,8.9,93,0.00,,,-99.99,96.0,HOBO +U30 +Weather +,2013-12-03 21:50:00,
2013-12-03 14:55:00,14.0,12.4,-100.00,WNW,293,1.8,7.4,93,0.00,,,-99.99,84.0,HOBO +U30 +Weather +,2013-12-03 21:55:00,
2013-12-03 15:00:00,13.1,11.5,-100.00,NW,313,5.1,10.7,93,0.00,,,-99.99,73.0,HOBO +U30 +Weather +,2013-12-03 22:00:00,
2013-12-03 15:05:00,13.1,11.5,-100.00,WNW,302,5.6,11.2,93,0.00,,,-99.99,66.0,HOBO +U30 +Weather +,2013-12-03 22:05:00,
2013-12-03 15:10:00,13.5,11.9,-100.00,WNW,303,2.9,7.8,93,0.00,,,-99.99,62.0,HOBO +U30 +Weather +,2013-12-03 22:10:00,
2013-12-03 15:15:00,13.6,12.1,-100.00,NW,305,2.2,7.4,93,0.00,,,-99.99,57.0,HOBO +U30 +Weather +,2013-12-03 22:15:00,
2013-12-03 15:27:00,13.2,11.7,-100.00,NW,313,4.5,9.6,93,0.00,,,-99.99,51.0,HOBO +U30 +Weather +,2013-12-03 22:27:00,
2013-12-03 15:30:00,12.9,11.3,-100.00,NW,305,4.5,11.2,93,0.00,,,-99.99,36.0,HOBO +U30 +Weather +,2013-12-03 22:30:00,
2013-12-03 15:35:00,12.6,11.1,-100.00,NW,313,6.7,10.7,93,0.00,,,-99.99,31.0,HOBO +U30 +Weather +,2013-12-03 22:35:00,
2013-12-03 15:40:00,12.6,11.1,-100.00,NW,313,6.3,10.1,93,0.00,,,-99.99,28.0,HOBO +U30 +Weather +,2013-12-03 22:40:00,
2013-12-03 15:45:00,12.5,10.9,-100.00,NW,314,6.7,10.7,93,0.00,,,-99.99,26.0,HOBO +U30 +Weather +,2013-12-03 22:45:00,
2013-12-03 15:50:00,12.5,11.0,-100.00,NW,313,5.1,8.5,93,0.00,,,-99.99,22.0,HOBO +U30 +Weather +,2013-12-03 22:50:00,
2013-12-03 15:55:00,12.5,11.0,-100.00,NW,307,5.6,8.9,93,0.00,,,-99.99,18.0,HOBO +U30 +Weather +,2013-12-03 22:55:00,
2013-12-03 16:00:00,12.6,11.1,-100.00,NW,312,4.5,7.8,93,0.00,,,-99.99,16.0,HOBO +U30 +Weather +,2013-12-03 23:00:00,
2013-12-03 16:05:00,12.6,11.1,-100.00,NW,310,3.4,11.9,93,0.00,,,-99.99,16.0,HOBO +U30 +Weather +,2013-12-03 23:05:00,
2013-12-03 16:10:00,12.5,11.0,-100.00,NW,321,6.7,14.5,93,0.00,,,-99.99,12.0,HOBO +U30 +Weather +,2013-12-03 23:10:00,
2013-12-03 16:15:00,12.5,11.0,-100.00,NW,324,6.7,12.3,93,0.00,,,-99.99,8.0,HOBO +U30 +Weather +,2013-12-03 23:15:00,
2013-12-03 16:25:00,12.3,10.7,-100.00,NNW,341,7.8,12.3,93,0.00,,,-99.99,2.0,HOBO +U30 +Weather +,2013-12-03 23:25:00,
2013-12-03 16:26:00,12.5,11.0,-100.00,NW,324,5.1,10.1,93,0.00,,,-99.99,4.0,HOBO +U30 +Weather +,2013-12-03 23:26:00,
2013-12-03 16:30:00,11.9,10.3,-100.00,NW,324,7.8,15.9,93,0.00,,,-99.99,1.0,HOBO +U30 +Weather +,2013-12-03 23:30:00,
2013-12-03 16:35:00,11.8,10.2,-100.00,NNW,334,8.9,14.5,93,0.00,,,-99.99,1.0,HOBO +U30 +Weather +,2013-12-03 23:35:00,
2013-12-03 16:40:00,12.0,10.4,-100.00,NW,316,4.5,12.3,93,0.00,,,-99.99,1.0,HOBO +U30 +Weather +,2013-12-03 23:40:00,
2013-12-03 16:45:00,11.9,10.3,-100.00,NW,319,6.3,11.9,93,0.00,,,-99.99,1.0,HOBO +U30 +Weather +,2013-12-03 23:45:00,
2013-12-03 16:50:00,11.6,10.0,-100.00,NW,323,7.8,14.1,93,0.00,,,-99.99,1.0,HOBO +U30 +Weather +,2013-12-03 23:50:00,
2013-12-03 16:55:00,11.6,10.0,-100.00,NNW,330,7.4,12.3,93,0.00,,,-99.99,1.0,HOBO +U30 +Weather +,2013-12-03 23:55:00,
2013-12-03 17:00:00,11.4,9.7,-100.00,NNW,334,8.9,14.5,93,0.00,,,-99.99,1.0,HOBO +U30 +Weather +,2013-12-04 00:00:00,
2013-12-03 17:05:00,11.4,9.8,-100.00,NNW,331,7.8,11.9,93,0.00,,,-99.99,1.0,HOBO +U30 +Weather +,2013-12-04 00:05:00,
2013-12-03 17:10:00,11.4,9.9,-100.00,NNW,329,6.7,11.2,93,0.00,,,-99.99,1.0,HOBO +U30 +Weather +,2013-12-04 00:10:00,
2013-12-03 17:24:00,11.4,9.8,-100.00,NNW,331,4.5,8.9,93,0.00,,,-99.99,1.0,HOBO +U30 +Weather +,2013-12-04 00:24:00,
2013-12-03 17:25:00,11.5,9.9,-100.00,NW,305,4.5,9.6,93,0.00,,,-99.99,1.0,HOBO +U30 +Weather +,2013-12-04 00:25:00,
2013-12-03 17:30:00,11.5,9.9,-100.00,NW,324,2.9,6.3,93,0.00,,,-99.99,1.0,HOBO +U30 +Weather +,2013-12-04 00:30:00,
2013-12-03 17:35:00,11.3,9.7,-100.00,NNW,330,4.5,7.8,93,0.00,,,-99.99,1.0,HOBO +U30 +Weather +,2013-12-04 00:35:00,
2013-12-03 17:40:00,11.4,9.9,-100.00,NW,326,4.5,8.9,93,0.00,,,-99.99,1.0,HOBO +U30 +Weather +,2013-12-04 00:40:00,
2013-12-03 17:45:00,11.2,9.6,-100.00,NW,326,5.1,10.1,93,0.00,,,-99.99,1.0,HOBO +U30 +Weather +,2013-12-04 00:45:00,
2013-12-03 17:50:00,11.2,9.6,-100.00,NW,313,5.1,9.6,93,0.00,,,-99.99,1.0,HOBO +U30 +Weather +,2013-12-04 00:50:00,
2013-12-03 17:55:00,11.2,9.6,-100.00,NW,305,4.5,7.8,93,0.00,,,-99.99,1.0,HOBO +U30 +Weather +,2013-12-04 00:55:00,
2013-12-03 18:00:00,11.2,9.6,-100.00,NW,313,4.0,8.9,93,0.00,,,-99.99,1.0,HOBO +U30 +Weather +,2013-12-04 01:00:00,
2013-12-03 18:05:00,11.1,9.5,-100.00,NW,326,4.0,7.8,93,0.00,,,-99.99,1.0,HOBO +U30 +Weather +,2013-12-04 01:05:00,
2013-12-03 18:10:00,11.2,9.6,-100.00,NW,326,4.0,8.5,93,0.00,,,-99.99,1.0,HOBO +U30 +Weather +,2013-12-04 01:10:00,
2013-12-03 18:24:00,11.2,9.6,-100.00,NW,317,2.2,7.4,93,0.00,,,-99.99,1.0,HOBO +U30 +Weather +,2013-12-04 01:24:00,
2013-12-03 18:25:00,11.0,9.4,-100.00,NNW,327,3.4,5.6,93,0.00,,,-99.99,1.0,HOBO +U30 +Weather +,2013-12-04 01:25:00,
2013-12-03 18:30:00,11.0,9.4,-100.00,NW,326,2.9,6.7,93,0.00,,,-99.99,1.0,HOBO +U30 +Weather +,2013-12-04 01:30:00,
2013-12-03 18:35:00,11.0,9.4,-100.00,NW,321,2.9,5.6,93,0.00,,,-99.99,1.0,HOBO +U30 +Weather +,2013-12-04 01:35:00,
2013-12-03 18:40:00,11.0,9.4,-100.00,NW,319,1.1,6.3,93,0.00,,,-99.99,1.0,HOBO +U30 +Weather +,2013-12-04 01:40:00,
2013-12-03 18:45:00,10.8,9.2,-100.00,NW,326,1.8,4.5,93,0.00,,,-99.99,1.0,HOBO +U30 +Weather +,2013-12-04 01:45:00,
2013-12-03 18:50:00,10.8,9.2,-100.00,NW,320,2.9,6.7,93,0.00,,,-99.99,1.0,HOBO +U30 +Weather +,2013-12-04 01:50:00,
2013-12-03 18:55:00,10.8,9.2,-100.00,WNW,303,2.9,7.8,93,0.00,,,-99.99,1.0,HOBO +U30 +Weather +,2013-12-04 01:55:00,
2013-12-03 19:00:00,10.6,9.0,-100.00,NW,306,4.5,9.6,93,0.00,,,-99.99,1.0,HOBO +U30 +Weather +,2013-12-04 02:00:00,
2013-12-03 19:05:00,10.4,8.8,-100.00,NW,309,5.1,8.5,93,0.00,,,-99.99,1.0,HOBO +U30 +Weather +,2013-12-04 02:05:00,
2013-12-03 19:10:00,10.6,9.1,-100.00,WNW,296,2.2,7.8,93,0.00,,,-99.99,1.0,HOBO +U30 +Weather +,2013-12-04 02:10:00,
2013-12-03 19:21:00,10.6,9.0,-100.00,NW,313,2.2,5.6,93,0.00,,,-99.99,1.0,HOBO +U30 +Weather +,2013-12-04 02:21:00,
2013-12-03 19:25:00,10.6,9.0,-100.00,WNW,284,2.2,5.6,93,0.00,,,-99.99,1.0,HOBO +U30 +Weather +,2013-12-04 02:25:00,
2013-12-03 19:30:00,10.6,9.0,-100.00,NW,314,1.8,4.5,93,0.00,,,-99.99,1.0,HOBO +U30 +Weather +,2013-12-04 02:30:00,
2013-12-03 19:35:00,10.8,9.2,-100.00,NW,307,1.8,6.3,93,0.00,,,-99.99,1.0,HOBO +U30 +Weather +,2013-12-04 02:35:00,
2013-12-03 19:40:00,10.6,9.0,-100.00,NW,313,1.1,4.5,93,0.00,,,-99.99,1.0,HOBO +U30 +Weather +,2013-12-04 02:40:00,
2013-12-03 19:45:00,10.6,9.0,-100.00,WNW,292,2.2,6.7,93,0.00,,,-99.99,1.0,HOBO +U30 +Weather +,2013-12-04 02:45:00,
2013-12-03 19:50:00,10.6,8.9,-100.00,NW,313,2.9,6.3,93,0.00,,,-99.99,1.0,HOBO +U30 +Weather +,2013-12-04 02:50:00,
2013-12-03 19:55:00,10.4,8.8,-100.00,NW,305,4.0,6.7,93,0.00,,,-99.99,1.0,HOBO +U30 +Weather +,2013-12-04 02:55:00,
2013-12-03 20:00:00,10.5,8.9,-100.00,NW,312,2.9,6.7,93,0.00,,,-99.99,1.0,HOBO +U30 +Weather +,2013-12-04 03:00:00,
2013-12-03 20:05:00,10.5,8.9,-100.00,NW,310,1.8,4.5,93,0.00,,,-99.99,1.0,HOBO +U30 +Weather +,2013-12-04 03:05:00,
2013-12-03 20:10:00,10.4,8.8,-100.00,NW,314,2.2,5.6,93,0.00,,,-99.99,1.0,HOBO +U30 +Weather +,2013-12-04 03:10:00,
2013-12-03 20:20:00,10.2,8.6,-100.00,NW,326,4.5,7.8,93,0.00,,,-99.99,1.0,HOBO +U30 +Weather +,2013-12-04 03:20:00,
2013-12-03 20:22:00,10.4,8.8,-100.00,NW,307,3.4,9.6,93,0.00,,,-99.99,1.0,HOBO +U30 +Weather +,2013-12-04 03:22:00,
2013-12-03 20:25:00,10.3,8.7,-100.00,NW,320,4.0,7.4,93,0.00,,,-99.99,1.0,HOBO +U30 +Weather +,2013-12-04 03:25:00,
2013-12-03 20:30:00,10.5,8.9,-100.00,NNW,327,2.2,6.7,93,0.00,,,-99.99,1.0,HOBO +U30 +Weather +,2013-12-04 03:30:00,
2013-12-03 20:35:00,10.2,8.6,-100.00,NW,316,2.9,6.3,93,0.00,,,-99.99,1.0,HOBO +U30 +Weather +,2013-12-04 03:35:00,
2013-12-03 20:40:00,10.2,8.5,-100.00,NW,310,4.0,6.7,93,0.00,,,-99.99,1.0,HOBO +U30 +Weather +,2013-12-04 03:40:00,
2013-12-03 20:45:00,10.1,8.5,-100.00,NW,309,3.4,6.7,93,0.00,,,-99.99,1.0,HOBO +U30 +Weather +,2013-12-04 03:45:00,
2013-12-03 20:50:00,10.0,8.4,-100.00,NW,321,4.5,8.9,93,0.00,,,-99.99,1.0,HOBO +U30 +Weather +,2013-12-04 03:50:00,
2013-12-03 20:55:00,9.8,8.1,-100.00,NNW,329,7.4,11.2,92,0.00,,,-99.99,1.0,HOBO +U30 +Weather +,2013-12-04 03:55:00,
2013-12-03 21:00:00,9.9,8.2,-100.00,NNW,333,5.1,11.9,92,0.00,,,-99.99,1.0,HOBO +U30 +Weather +,2013-12-04 04:00:00,
2013-12-03 21:05:00,9.7,8.0,-100.00,North,355,5.6,12.3,92,0.00,,,-99.99,1.0,HOBO +U30 +Weather +,2013-12-04 04:05:00,
2013-12-03 21:18:00,9.6,8.0,-100.00,NNW,340,4.5,7.4,92,0.00,,,-99.99,1.0,HOBO +U30 +Weather +,2013-12-04 04:18:00,
2013-12-03 21:20:00,9.6,7.9,-100.00,North,350,4.0,5.6,92,0.00,,,-99.99,1.0,HOBO +U30 +Weather +,2013-12-04 04:20:00,
2013-12-03 21:25:00,9.4,7.8,-100.00,North,351,4.0,7.8,92,0.00,,,-99.99,1.0,HOBO +U30 +Weather +,2013-12-04 04:25:00,
2013-12-03 21:30:00,9.4,7.7,-100.00,North,350,4.0,7.8,92,0.00,,,-99.99,1.0,HOBO +U30 +Weather +,2013-12-04 04:30:00,
2013-12-03 21:35:00,9.3,7.6,-100.00,NNW,348,4.5,7.4,92,0.00,,,-99.99,1.0,HOBO +U30 +Weather +,2013-12-04 04:35:00,
2013-12-03 21:40:00,9.2,7.4,-100.00,North,352,6.3,8.5,92,0.00,,,-99.99,1.0,HOBO +U30 +Weather +,2013-12-04 04:40:00,
2013-12-03 21:45:00,9.3,7.6,-100.00,NW,324,3.4,5.6,92,0.00,,,-99.99,1.0,HOBO +U30 +Weather +,2013-12-04 04:45:00,
2013-12-03 21:50:00,9.2,7.5,-100.00,North,350,4.0,8.9,92,0.00,,,-99.99,1.0,HOBO +U30 +Weather +,2013-12-04 04:50:00,
2013-12-03 21:55:00,9.2,7.4,-100.00,NNW,347,4.0,7.4,92,0.00,,,-99.99,1.0,HOBO +U30 +Weather +,2013-12-04 04:55:00,
2013-12-03 22:00:00,9.1,7.3,-100.00,NW,319,4.5,8.5,92,0.00,,,-99.99,1.0,HOBO +U30 +Weather +,2013-12-04 05:00:00,
2013-12-03 22:05:00,9.0,7.2,-100.00,NW,309,4.0,8.5,92,0.00,,,-99.99,1.0,HOBO +U30 +Weather +,2013-12-04 05:05:00,
2013-12-03 22:10:00,8.9,7.2,-100.00,NW,324,4.5,7.4,92,0.00,,,-99.99,1.0,HOBO +U30 +Weather +,2013-12-04 05:10:00,
2013-12-03 22:15:00,9.0,7.2,-100.00,NNW,327,1.8,4.5,92,0.00,,,-99.99,1.0,HOBO +U30 +Weather +,2013-12-04 05:15:00,
2013-12-03 22:20:00,8.8,7.0,-100.00,NNW,344,4.5,8.9,92,0.00,,,-99.99,1.0,HOBO +U30 +Weather +,2013-12-04 05:20:00,
2013-12-03 22:25:00,8.6,6.9,-100.00,NNW,347,5.1,8.9,92,0.00,,,-99.99,1.0,HOBO +U30 +Weather +,2013-12-04 05:25:00,
2013-12-03 22:30:00,8.5,6.7,-100.00,North,352,6.7,11.9,92,0.00,,,-99.99,1.0,HOBO +U30 +Weather +,2013-12-04 05:30:00,
2013-12-03 22:35:00,8.4,6.6,-100.00,NNW,345,7.4,11.9,92,0.00,,,-99.99,1.0,HOBO +U30 +Weather +,2013-12-04 05:35:00,
2013-12-03 22:40:00,8.2,6.4,-100.00,NNW,347,6.3,10.7,92,0.00,,,-99.99,1.0,HOBO +U30 +Weather +,2013-12-04 05:40:00,
2013-12-03 22:45:00,8.2,6.3,-100.00,North,350,5.6,8.5,92,0.00,,,-99.99,1.0,HOBO +U30 +Weather +,2013-12-04 05:45:00,
2013-12-03 22:50:00,8.1,6.3,-100.00,North,3,5.1,9.6,92,0.00,,,-99.99,1.0,HOBO +U30 +Weather +,2013-12-04 05:50:00,
2013-12-03 22:55:00,8.0,6.2,-100.00,North,351,5.6,9.6,92,0.00,,,-99.99,1.0,HOBO +U30 +Weather +,2013-12-04 05:55:00,
2013-12-03 23:00:00,7.9,6.1,-100.00,North,355,6.3,10.1,92,0.00,,,-99.99,1.0,HOBO +U30 +Weather +,2013-12-04 06:00:00,
2013-12-03 23:05:00,7.9,6.1,-100.00,NNW,345,5.6,7.8,92,0.00,,,-99.99,1.0,HOBO +U30 +Weather +,2013-12-04 06:05:00,
2013-12-03 23:15:00,8.0,6.1,-100.00,NNW,327,4.0,7.8,92,0.00,,,-99.99,1.0,HOBO +U30 +Weather +,2013-12-04 06:15:00,
2013-12-03 23:16:00,7.9,6.1,-100.00,NNW,336,5.1,8.9,92,0.00,,,-99.99,1.0,HOBO +U30 +Weather +,2013-12-04 06:16:00,
2013-12-03 23:20:00,7.9,6.1,-100.00,NW,319,3.4,8.5,92,0.00,,,-99.99,1.0,HOBO +U30 +Weather +,2013-12-04 06:20:00,
2013-12-03 23:25:00,7.8,6.0,-100.00,WNW,302,5.1,8.9,92,0.00,,,-99.99,1.0,HOBO +U30 +Weather +,2013-12-04 06:25:00,
2013-12-03 23:30:00,7.8,6.0,-100.00,NW,316,3.4,6.7,92,0.00,,,-99.99,1.0,HOBO +U30 +Weather +,2013-12-04 06:30:00,
2013-12-03 23:35:00,7.8,5.9,-100.00,NNW,330,3.4,6.7,92,0.00,,,-99.99,1.0,HOBO +U30 +Weather +,2013-12-04 06:35:00,
2013-12-03 23:40:00,7.7,5.9,-100.00,NNW,338,2.9,6.3,92,0.00,,,-99.99,1.0,HOBO +U30 +Weather +,2013-12-04 06:40:00,
2013-12-03 23:45:00,7.6,5.8,-100.00,NNW,341,2.9,6.7,92,0.00,,,-99.99,1.0,HOBO +U30 +Weather +,2013-12-04 06:45:00,
2013-12-03 23:50:00,7.4,5.5,-100.00,NNW,341,4.5,7.4,92,0.00,,,-99.99,1.0,HOBO +U30 +Weather +,2013-12-04 06:50:00,
2013-12-03 23:55:00,7.4,5.5,-100.00,NNW,336,2.9,6.7,92,0.00,,,-99.99,1.0,HOBO +U30 +Weather +,2013-12-04 06:55:00,